sensor_id;sensor_type;location;lat;lon;timestamp;temperature;humidity
15241;DHT22;7723;52.170;9.978;2023-07-29T00:00:55;19.00;99.90
15241;DHT22;7723;52.170;9.978;2023-07-29T00:03:22;19.00;99.90
15241;DHT22;7723;52.170;9.978;2023-07-29T00:05:49;19.00;99.90
15241;DHT22;7723;52.170;9.978;2023-07-29T00:08:16;19.00;99.90
15241;DHT22;7723;52.170;9.978;2023-07-29T00:10:43;19.00;99.90
15241;DHT22;7723;52.170;9.978;2023-07-29T00:13:12;18.90;99.90
15241;DHT22;7723;52.170;9.978;2023-07-29T00:15:39;18.90;99.90
15241;DHT22;7723;52.170;9.978;2023-07-29T00:18:06;18.90;99.90
15241;DHT22;7723;52.170;9.978;2023-07-29T00:20:33;18.80;99.90
15241;DHT22;7723;52.170;9.978;2023-07-29T00:23:00;18.80;99.90
15241;DHT22;7723;52.170;9.978;2023-07-29T00:25:28;18.70;99.90
15241;DHT22;7723;52.170;9.978;2023-07-29T00:27:56;18.60;99.90
15241;DHT22;7723;52.170;9.978;2023-07-29T00:30:24;18.50;99.90
15241;DHT22;7723;52.170;9.978;2023-07-29T00:32:51;18.40;99.90
15241;DHT22;7723;52.170;9.978;2023-07-29T00:35:18;18.40;99.90
15241;DHT22;7723;52.170;9.978;2023-07-29T00:37:46;18.30;99.90
15241;DHT22;7723;52.170;9.978;2023-07-29T00:40:16;18.30;99.90
15241;DHT22;7723;52.170;9.978;2023-07-29T00:42:46;18.30;99.90
15241;DHT22;7723;52.170;9.978;2023-07-29T00:45:13;18.30;99.90
15241;DHT22;7723;52.170;9.978;2023-07-29T00:47:42;18.20;99.90
15241;DHT22;7723;52.170;9.978;2023-07-29T00:50:11;18.10;99.90
15241;DHT22;7723;52.170;9.978;2023-07-29T00:52:39;18.10;99.90
15241;DHT22;7723;52.170;9.978;2023-07-29T00:55:07;18.10;99.90
15241;DHT22;7723;52.170;9.978;2023-07-29T00:57:35;18.10;99.90
15241;DHT22;7723;52.170;9.978;2023-07-29T01:00:03;18.10;99.90
15241;DHT22;7723;52.170;9.978;2023-07-29T01:02:31;18.00;99.90
15241;DHT22;7723;52.170;9.978;2023-07-29T01:05:00;18.10;99.90
15241;DHT22;7723;52.170;9.978;2023-07-29T01:07:32;18.10;99.90
15241;DHT22;7723;52.170;9.978;2023-07-29T01:10:02;18.00;99.90
15241;DHT22;7723;52.170;9.978;2023-07-29T01:12:36;18.10;99.90
15241;DHT22;7723;52.170;9.978;2023-07-29T01:15:12;18.10;99.90
15241;DHT22;7723;52.170;9.978;2023-07-29T01:17:43;18.00;99.90
15241;DHT22;7723;52.170;9.978;2023-07-29T01:20:16;18.00;99.90
15241;DHT22;7723;52.170;9.978;2023-07-29T01:22:44;17.90;99.90
15241;DHT22;7723;52.170;9.978;2023-07-29T01:25:12;17.90;99.90
15241;DHT22;7723;52.170;9.978;2023-07-29T01:27:40;17.90;99.90
15241;DHT22;7723;52.170;9.978;2023-07-29T01:30:07;17.80;99.90
15241;DHT22;7723;52.170;9.978;2023-07-29T01:32:39;17.80;99.90
15241;DHT22;7723;52.170;9.978;2023-07-29T01:35:15;17.80;99.90
15241;DHT22;7723;52.170;9.978;2023-07-29T01:37:46;17.70;99.90
15241;DHT22;7723;52.170;9.978;2023-07-29T01:40:17;17.70;99.90
15241;DHT22;7723;52.170;9.978;2023-07-29T01:42:45;17.60;99.90
15241;DHT22;7723;52.170;9.978;2023-07-29T01:45:12;17.60;99.90
15241;DHT22;7723;52.170;9.978;2023-07-29T01:47:40;17.60;99.90
15241;DHT22;7723;52.170;9.978;2023-07-29T01:50:08;17.60;99.90
15241;DHT22;7723;52.170;9.978;2023-07-29T01:52:35;17.60;99.90
15241;DHT22;7723;52.170;9.978;2023-07-29T01:55:03;17.50;99.90
15241;DHT22;7723;52.170;9.978;2023-07-29T01:57:31;17.50;99.90
15241;DHT22;7723;52.170;9.978;2023-07-29T01:59:58;17.50;99.90
15241;DHT22;7723;52.170;9.978;2023-07-29T02:02:26;17.40;99.90
15241;DHT22;7723;52.170;9.978;2023-07-29T02:04:53;17.40;99.90
15241;DHT22;7723;52.170;9.978;2023-07-29T02:07:21;17.40;99.90
15241;DHT22;7723;52.170;9.978;2023-07-29T02:09:48;17.40;99.90
15241;DHT22;7723;52.170;9.978;2023-07-29T02:12:15;17.40;99.90
15241;DHT22;7723;52.170;9.978;2023-07-29T02:14:44;17.40;99.90
15241;DHT22;7723;52.170;9.978;2023-07-29T02:17:11;17.60;99.90
15241;DHT22;7723;52.170;9.978;2023-07-29T02:19:38;17.60;99.90
15241;DHT22;7723;52.170;9.978;2023-07-29T02:22:05;17.70;99.90
15241;DHT22;7723;52.170;9.978;2023-07-29T02:24:32;17.80;99.90
15241;DHT22;7723;52.170;9.978;2023-07-29T02:26:59;17.80;99.90
15241;DHT22;7723;52.170;9.978;2023-07-29T02:29:26;17.90;99.90
15241;DHT22;7723;52.170;9.978;2023-07-29T02:31:55;17.90;99.90
15241;DHT22;7723;52.170;9.978;2023-07-29T02:34:22;18.00;99.90
15241;DHT22;7723;52.170;9.978;2023-07-29T02:36:49;18.00;99.90
15241;DHT22;7723;52.170;9.978;2023-07-29T02:39:16;18.10;99.90
15241;DHT22;7723;52.170;9.978;2023-07-29T02:41:44;18.00;99.90
15241;DHT22;7723;52.170;9.978;2023-07-29T02:44:11;18.10;99.90
15241;DHT22;7723;52.170;9.978;2023-07-29T02:46:38;18.10;99.90
15241;DHT22;7723;52.170;9.978;2023-07-29T02:49:06;18.00;99.90
15241;DHT22;7723;52.170;9.978;2023-07-29T02:51:34;18.00;99.90
15241;DHT22;7723;52.170;9.978;2023-07-29T02:54:01;18.00;99.90
15241;DHT22;7723;52.170;9.978;2023-07-29T02:56:28;18.00;99.90
15241;DHT22;7723;52.170;9.978;2023-07-29T02:58:56;18.00;99.90
15241;DHT22;7723;52.170;9.978;2023-07-29T03:01:23;18.00;99.90
15241;DHT22;7723;52.170;9.978;2023-07-29T03:03:51;18.00;99.90
15241;DHT22;7723;52.170;9.978;2023-07-29T03:06:20;18.00;99.90
15241;DHT22;7723;52.170;9.978;2023-07-29T03:08:47;18.10;99.90
15241;DHT22;7723;52.170;9.978;2023-07-29T03:11:15;18.10;99.90
15241;DHT22;7723;52.170;9.978;2023-07-29T03:13:43;18.10;99.90
15241;DHT22;7723;52.170;9.978;2023-07-29T03:16:11;18.10;99.90
15241;DHT22;7723;52.170;9.978;2023-07-29T03:18:39;18.10;99.90
15241;DHT22;7723;52.170;9.978;2023-07-29T03:21:07;18.10;99.90
15241;DHT22;7723;52.170;9.978;2023-07-29T03:23:35;18.00;99.90
15241;DHT22;7723;52.170;9.978;2023-07-29T03:26:03;18.00;99.90
15241;DHT22;7723;52.170;9.978;2023-07-29T03:28:37;18.00;99.90
15241;DHT22;7723;52.170;9.978;2023-07-29T03:31:04;18.00;99.90
15241;DHT22;7723;52.170;9.978;2023-07-29T03:33:31;18.00;99.90
15241;DHT22;7723;52.170;9.978;2023-07-29T03:35:58;17.90;99.90
15241;DHT22;7723;52.170;9.978;2023-07-29T03:38:25;18.00;99.90
15241;DHT22;7723;52.170;9.978;2023-07-29T03:40:54;18.00;99.90
15241;DHT22;7723;52.170;9.978;2023-07-29T03:43:21;17.90;99.90
15241;DHT22;7723;52.170;9.978;2023-07-29T03:45:48;17.90;99.90
15241;DHT22;7723;52.170;9.978;2023-07-29T03:48:15;18.00;99.90
15241;DHT22;7723;52.170;9.978;2023-07-29T03:50:42;18.00;99.90
15241;DHT22;7723;52.170;9.978;2023-07-29T03:53:10;18.00;99.90
15241;DHT22;7723;52.170;9.978;2023-07-29T03:55:37;18.10;99.90
15241;DHT22;7723;52.170;9.978;2023-07-29T03:58:05;18.10;99.90
15241;DHT22;7723;52.170;9.978;2023-07-29T04:00:32;18.10;99.90
15241;DHT22;7723;52.170;9.978;2023-07-29T04:02:59;18.10;99.90
15241;DHT22;7723;52.170;9.978;2023-07-29T04:05:26;18.10;99.90
15241;DHT22;7723;52.170;9.978;2023-07-29T04:07:54;18.10;99.90
15241;DHT22;7723;52.170;9.978;2023-07-29T04:10:21;18.20;99.90
15241;DHT22;7723;52.170;9.978;2023-07-29T04:12:48;18.20;99.90
15241;DHT22;7723;52.170;9.978;2023-07-29T04:15:17;18.20;99.90
15241;DHT22;7723;52.170;9.978;2023-07-29T04:17:44;18.30;99.90
15241;DHT22;7723;52.170;9.978;2023-07-29T04:20:11;18.30;99.90
15241;DHT22;7723;52.170;9.978;2023-07-29T04:22:38;18.40;99.90
15241;DHT22;7723;52.170;9.978;2023-07-29T04:25:07;18.50;99.90
15241;DHT22;7723;52.170;9.978;2023-07-29T04:27:34;18.50;99.90
15241;DHT22;7723;52.170;9.978;2023-07-29T04:30:01;18.60;99.90
15241;DHT22;7723;52.170;9.978;2023-07-29T04:32:29;18.70;99.90
15241;DHT22;7723;52.170;9.978;2023-07-29T04:34:56;18.70;99.90
15241;DHT22;7723;52.170;9.978;2023-07-29T04:37:24;18.80;99.90
15241;DHT22;7723;52.170;9.978;2023-07-29T04:39:51;18.80;99.90
15241;DHT22;7723;52.170;9.978;2023-07-29T04:42:18;18.80;99.90
15241;DHT22;7723;52.170;9.978;2023-07-29T04:44:45;18.80;99.90
15241;DHT22;7723;52.170;9.978;2023-07-29T04:47:12;18.80;99.90
15241;DHT22;7723;52.170;9.978;2023-07-29T04:49:41;18.80;99.90
15241;DHT22;7723;52.170;9.978;2023-07-29T04:52:08;18.80;99.90
15241;DHT22;7723;52.170;9.978;2023-07-29T04:54:36;18.80;99.90
15241;DHT22;7723;52.170;9.978;2023-07-29T04:57:03;18.80;99.90
15241;DHT22;7723;52.170;9.978;2023-07-29T04:59:30;18.80;99.90
15241;DHT22;7723;52.170;9.978;2023-07-29T05:01:57;18.90;99.90
15241;DHT22;7723;52.170;9.978;2023-07-29T05:04:24;18.90;99.90
15241;DHT22;7723;52.170;9.978;2023-07-29T05:06:53;18.90;99.90
15241;DHT22;7723;52.170;9.978;2023-07-29T05:09:20;19.00;99.90
15241;DHT22;7723;52.170;9.978;2023-07-29T05:11:47;19.00;99.90
15241;DHT22;7723;52.170;9.978;2023-07-29T05:14:15;19.00;99.90
15241;DHT22;7723;52.170;9.978;2023-07-29T05:16:43;19.00;99.90
15241;DHT22;7723;52.170;9.978;2023-07-29T05:19:10;19.00;99.90
15241;DHT22;7723;52.170;9.978;2023-07-29T05:21:38;19.00;99.90
15241;DHT22;7723;52.170;9.978;2023-07-29T05:24:06;18.90;99.90
15241;DHT22;7723;52.170;9.978;2023-07-29T05:26:33;18.90;99.90
15241;DHT22;7723;52.170;9.978;2023-07-29T05:29:01;18.90;99.90
15241;DHT22;7723;52.170;9.978;2023-07-29T05:31:29;19.00;99.90
15241;DHT22;7723;52.170;9.978;2023-07-29T05:33:56;19.00;99.90
15241;DHT22;7723;52.170;9.978;2023-07-29T05:36:23;19.00;99.90
15241;DHT22;7723;52.170;9.978;2023-07-29T05:38:52;19.10;99.90
15241;DHT22;7723;52.170;9.978;2023-07-29T05:41:20;19.10;99.90
15241;DHT22;7723;52.170;9.978;2023-07-29T05:43:47;19.20;99.90
15241;DHT22;7723;52.170;9.978;2023-07-29T05:46:15;19.20;99.90
15241;DHT22;7723;52.170;9.978;2023-07-29T05:48:42;19.20;99.90
15241;DHT22;7723;52.170;9.978;2023-07-29T05:51:09;19.20;99.90
15241;DHT22;7723;52.170;9.978;2023-07-29T05:53:36;19.30;99.90
15241;DHT22;7723;52.170;9.978;2023-07-29T05:56:03;19.30;99.90
15241;DHT22;7723;52.170;9.978;2023-07-29T05:58:32;19.30;99.90
15241;DHT22;7723;52.170;9.978;2023-07-29T06:00:59;19.20;99.90
15241;DHT22;7723;52.170;9.978;2023-07-29T06:03:26;19.10;99.90
15241;DHT22;7723;52.170;9.978;2023-07-29T06:05:54;19.10;99.90
15241;DHT22;7723;52.170;9.978;2023-07-29T06:08:21;19.00;99.90
15241;DHT22;7723;52.170;9.978;2023-07-29T06:10:48;18.90;99.90
15241;DHT22;7723;52.170;9.978;2023-07-29T06:13:15;18.90;99.90
15241;DHT22;7723;52.170;9.978;2023-07-29T06:15:44;18.80;99.90
15241;DHT22;7723;52.170;9.978;2023-07-29T06:18:11;18.70;99.90
15241;DHT22;7723;52.170;9.978;2023-07-29T06:20:38;18.70;99.90
15241;DHT22;7723;52.170;9.978;2023-07-29T06:23:05;18.70;99.90
15241;DHT22;7723;52.170;9.978;2023-07-29T06:25:32;18.60;99.90
15241;DHT22;7723;52.170;9.978;2023-07-29T06:27:59;18.60;99.90
15241;DHT22;7723;52.170;9.978;2023-07-29T06:30:27;18.60;99.90
15241;DHT22;7723;52.170;9.978;2023-07-29T06:32:55;18.60;99.90
15241;DHT22;7723;52.170;9.978;2023-07-29T06:35:22;18.60;99.90
15241;DHT22;7723;52.170;9.978;2023-07-29T06:37:49;18.70;99.90
15241;DHT22;7723;52.170;9.978;2023-07-29T06:40:16;18.60;99.90
15241;DHT22;7723;52.170;9.978;2023-07-29T06:42:44;18.70;99.90
15241;DHT22;7723;52.170;9.978;2023-07-29T06:45:11;18.80;99.90
15241;DHT22;7723;52.170;9.978;2023-07-29T06:47:38;18.70;99.90
15241;DHT22;7723;52.170;9.978;2023-07-29T06:50:07;18.80;99.90
15241;DHT22;7723;52.170;9.978;2023-07-29T06:52:34;18.80;99.90
15241;DHT22;7723;52.170;9.978;2023-07-29T06:55:04;19.00;99.90
15241;DHT22;7723;52.170;9.978;2023-07-29T06:57:31;19.20;99.90
15241;DHT22;7723;52.170;9.978;2023-07-29T06:59:59;19.30;99.90
15241;DHT22;7723;52.170;9.978;2023-07-29T07:02:26;19.50;99.90
15241;DHT22;7723;52.170;9.978;2023-07-29T07:04:53;19.70;99.90
15241;DHT22;7723;52.170;9.978;2023-07-29T07:07:21;20.10;99.90
15241;DHT22;7723;52.170;9.978;2023-07-29T07:09:48;20.50;99.90
15241;DHT22;7723;52.170;9.978;2023-07-29T07:12:16;20.70;99.90
15241;DHT22;7723;52.170;9.978;2023-07-29T07:14:43;20.80;99.90
15241;DHT22;7723;52.170;9.978;2023-07-29T07:17:10;20.90;99.90
15241;DHT22;7723;52.170;9.978;2023-07-29T07:19:37;20.90;99.90
15241;DHT22;7723;52.170;9.978;2023-07-29T07:22:04;20.80;99.90
15241;DHT22;7723;52.170;9.978;2023-07-29T07:24:32;20.60;99.90
15241;DHT22;7723;52.170;9.978;2023-07-29T07:26:59;20.50;99.90
15241;DHT22;7723;52.170;9.978;2023-07-29T07:29:26;20.40;99.90
15241;DHT22;7723;52.170;9.978;2023-07-29T07:31:55;20.50;99.90
15241;DHT22;7723;52.170;9.978;2023-07-29T07:34:23;20.60;99.90
15241;DHT22;7723;52.170;9.978;2023-07-29T07:36:50;20.60;99.90
15241;DHT22;7723;52.170;9.978;2023-07-29T07:39:17;20.70;99.90
15241;DHT22;7723;52.170;9.978;2023-07-29T07:41:45;20.70;99.90
15241;DHT22;7723;52.170;9.978;2023-07-29T07:44:13;20.70;99.90
15241;DHT22;7723;52.170;9.978;2023-07-29T07:46:43;20.70;99.90
15241;DHT22;7723;52.170;9.978;2023-07-29T07:49:10;20.70;99.90
15241;DHT22;7723;52.170;9.978;2023-07-29T07:51:38;20.70;99.90
15241;DHT22;7723;52.170;9.978;2023-07-29T07:54:05;20.60;99.90
15241;DHT22;7723;52.170;9.978;2023-07-29T07:56:33;20.70;99.90
15241;DHT22;7723;52.170;9.978;2023-07-29T07:59:01;20.70;99.90
15241;DHT22;7723;52.170;9.978;2023-07-29T08:01:34;20.80;99.90
15241;DHT22;7723;52.170;9.978;2023-07-29T08:04:01;21.00;99.90
15241;DHT22;7723;52.170;9.978;2023-07-29T08:06:28;21.00;99.90
15241;DHT22;7723;52.170;9.978;2023-07-29T08:08:56;21.10;99.90
15241;DHT22;7723;52.170;9.978;2023-07-29T08:11:23;21.50;99.90
15241;DHT22;7723;52.170;9.978;2023-07-29T08:13:50;21.60;99.90
15241;DHT22;7723;52.170;9.978;2023-07-29T08:16:18;21.80;99.90
15241;DHT22;7723;52.170;9.978;2023-07-29T08:18:45;21.90;99.90
15241;DHT22;7723;52.170;9.978;2023-07-29T08:21:13;22.10;99.90
15241;DHT22;7723;52.170;9.978;2023-07-29T08:23:40;22.20;99.90
15241;DHT22;7723;52.170;9.978;2023-07-29T08:26:07;22.40;99.90
15241;DHT22;7723;52.170;9.978;2023-07-29T08:28:35;22.40;99.90
15241;DHT22;7723;52.170;9.978;2023-07-29T08:31:03;22.20;99.90
15241;DHT22;7723;52.170;9.978;2023-07-29T08:33:33;22.30;99.90
15241;DHT22;7723;52.170;9.978;2023-07-29T08:36:00;22.20;99.90
15241;DHT22;7723;52.170;9.978;2023-07-29T08:38:28;22.20;99.90
15241;DHT22;7723;52.170;9.978;2023-07-29T08:40:59;22.20;99.90
15241;DHT22;7723;52.170;9.978;2023-07-29T08:43:32;22.20;99.90
15241;DHT22;7723;52.170;9.978;2023-07-29T08:45:59;22.30;99.90
15241;DHT22;7723;52.170;9.978;2023-07-29T08:48:36;22.30;99.90
15241;DHT22;7723;52.170;9.978;2023-07-29T08:51:04;22.30;99.90
15241;DHT22;7723;52.170;9.978;2023-07-29T08:53:32;22.40;99.90
15241;DHT22;7723;52.170;9.978;2023-07-29T08:55:59;22.30;99.90
15241;DHT22;7723;52.170;9.978;2023-07-29T08:58:27;22.40;99.90
15241;DHT22;7723;52.170;9.978;2023-07-29T09:00:55;22.20;99.90
15241;DHT22;7723;52.170;9.978;2023-07-29T09:03:22;21.90;99.90
15241;DHT22;7723;52.170;9.978;2023-07-29T09:05:51;21.60;99.90
15241;DHT22;7723;52.170;9.978;2023-07-29T09:08:19;21.40;99.90
15241;DHT22;7723;52.170;9.978;2023-07-29T09:10:47;21.60;99.90
15241;DHT22;7723;52.170;9.978;2023-07-29T09:13:14;21.20;99.90
15241;DHT22;7723;52.170;9.978;2023-07-29T09:15:41;21.20;99.90
15241;DHT22;7723;52.170;9.978;2023-07-29T09:18:10;21.30;99.90
15241;DHT22;7723;52.170;9.978;2023-07-29T09:20:38;21.40;99.90
15241;DHT22;7723;52.170;9.978;2023-07-29T09:23:08;21.50;99.90
15241;DHT22;7723;52.170;9.978;2023-07-29T09:25:36;21.60;99.90
15241;DHT22;7723;52.170;9.978;2023-07-29T09:28:08;21.80;99.90
15241;DHT22;7723;52.170;9.978;2023-07-29T09:30:37;22.10;99.90
15241;DHT22;7723;52.170;9.978;2023-07-29T09:33:04;22.20;99.90
15241;DHT22;7723;52.170;9.978;2023-07-29T09:35:33;22.30;99.90
15241;DHT22;7723;52.170;9.978;2023-07-29T09:38:01;22.40;99.90
15241;DHT22;7723;52.170;9.978;2023-07-29T09:40:34;22.50;99.90
15241;DHT22;7723;52.170;9.978;2023-07-29T09:43:02;22.70;99.90
15241;DHT22;7723;52.170;9.978;2023-07-29T09:45:29;23.10;99.90
15241;DHT22;7723;52.170;9.978;2023-07-29T09:47:57;23.30;99.90
15241;DHT22;7723;52.170;9.978;2023-07-29T09:50:26;23.50;99.90
15241;DHT22;7723;52.170;9.978;2023-07-29T09:52:54;23.60;99.90
15241;DHT22;7723;52.170;9.978;2023-07-29T09:55:22;23.70;99.90
15241;DHT22;7723;52.170;9.978;2023-07-29T09:57:56;23.80;99.90
15241;DHT22;7723;52.170;9.978;2023-07-29T10:00:25;24.30;99.90
15241;DHT22;7723;52.170;9.978;2023-07-29T10:02:53;24.00;99.90
15241;DHT22;7723;52.170;9.978;2023-07-29T10:05:22;23.80;99.90
15241;DHT22;7723;52.170;9.978;2023-07-29T10:07:49;23.60;99.90
15241;DHT22;7723;52.170;9.978;2023-07-29T10:10:17;23.00;99.90
15241;DHT22;7723;52.170;9.978;2023-07-29T10:12:45;23.00;99.90
15241;DHT22;7723;52.170;9.978;2023-07-29T10:15:15;23.10;99.90
15241;DHT22;7723;52.170;9.978;2023-07-29T10:17:42;23.10;99.90
15241;DHT22;7723;52.170;9.978;2023-07-29T10:20:10;23.20;99.90
15241;DHT22;7723;52.170;9.978;2023-07-29T10:22:39;22.90;99.90
15241;DHT22;7723;52.170;9.978;2023-07-29T10:25:09;23.00;99.90
15241;DHT22;7723;52.170;9.978;2023-07-29T10:27:42;23.00;99.90
15241;DHT22;7723;52.170;9.978;2023-07-29T10:30:11;23.00;99.90
15241;DHT22;7723;52.170;9.978;2023-07-29T10:32:42;23.80;99.90
15241;DHT22;7723;52.170;9.978;2023-07-29T10:35:14;24.40;99.90
15241;DHT22;7723;52.170;9.978;2023-07-29T10:37:41;24.90;99.90
15241;DHT22;7723;52.170;9.978;2023-07-29T10:40:10;25.30;99.90
15241;DHT22;7723;52.170;9.978;2023-07-29T10:42:38;25.70;99.90
15241;DHT22;7723;52.170;9.978;2023-07-29T10:45:18;26.20;99.90
15241;DHT22;7723;52.170;9.978;2023-07-29T10:47:47;25.80;1.00
15241;DHT22;7723;52.170;9.978;2023-07-29T10:50:18;25.60;1.00
15241;DHT22;7723;52.170;9.978;2023-07-29T10:52:50;25.50;99.90
15241;DHT22;7723;52.170;9.978;2023-07-29T10:55:26;25.50;1.00
15241;DHT22;7723;52.170;9.978;2023-07-29T10:58:05;25.90;1.00
15241;DHT22;7723;52.170;9.978;2023-07-29T11:00:32;26.00;99.90
15241;DHT22;7723;52.170;9.978;2023-07-29T11:03:02;25.90;1.00
15241;DHT22;7723;52.170;9.978;2023-07-29T11:05:43;25.60;6.60
15241;DHT22;7723;52.170;9.978;2023-07-29T11:08:18;25.10;1.00
15241;DHT22;7723;52.170;9.978;2023-07-29T11:10:58;24.80;1.00
15241;DHT22;7723;52.170;9.978;2023-07-29T11:13:26;24.70;1.00
15241;DHT22;7723;52.170;9.978;2023-07-29T11:15:55;24.30;1.00
15241;DHT22;7723;52.170;9.978;2023-07-29T11:18:27;24.20;1.00
15241;DHT22;7723;52.170;9.978;2023-07-29T11:20:55;24.40;1.00
15241;DHT22;7723;52.170;9.978;2023-07-29T11:23:28;24.50;1.00
15241;DHT22;7723;52.170;9.978;2023-07-29T11:25:56;24.40;99.90
15241;DHT22;7723;52.170;9.978;2023-07-29T11:28:24;24.30;99.90
15241;DHT22;7723;52.170;9.978;2023-07-29T11:30:51;24.20;1.00
15241;DHT22;7723;52.170;9.978;2023-07-29T11:33:20;24.20;1.00
15241;DHT22;7723;52.170;9.978;2023-07-29T11:35:49;24.20;99.90
15241;DHT22;7723;52.170;9.978;2023-07-29T11:38:17;24.50;1.00
15241;DHT22;7723;52.170;9.978;2023-07-29T11:40:54;24.70;7.00
15241;DHT22;7723;52.170;9.978;2023-07-29T11:43:21;24.60;1.00
15241;DHT22;7723;52.170;9.978;2023-07-29T11:45:48;24.40;1.00
15241;DHT22;7723;52.170;9.978;2023-07-29T11:48:15;24.40;1.00
15241;DHT22;7723;52.170;9.978;2023-07-29T11:50:43;24.30;1.00
15241;DHT22;7723;52.170;9.978;2023-07-29T11:53:13;24.30;1.00
15241;DHT22;7723;52.170;9.978;2023-07-29T11:55:40;24.50;1.00
15241;DHT22;7723;52.170;9.978;2023-07-29T11:58:07;24.50;1.00
15241;DHT22;7723;52.170;9.978;2023-07-29T12:00:35;24.60;99.90
15241;DHT22;7723;52.170;9.978;2023-07-29T12:03:02;24.70;1.00
15241;DHT22;7723;52.170;9.978;2023-07-29T12:05:31;24.80;99.90
15241;DHT22;7723;52.170;9.978;2023-07-29T12:07:58;25.00;1.00
15241;DHT22;7723;52.170;9.978;2023-07-29T12:10:27;25.20;99.90
15241;DHT22;7723;52.170;9.978;2023-07-29T12:12:55;24.80;1.00
15241;DHT22;7723;52.170;9.978;2023-07-29T12:15:25;24.80;83.40
15241;DHT22;7723;52.170;9.978;2023-07-29T12:17:54;24.70;1.00
15241;DHT22;7723;52.170;9.978;2023-07-29T12:20:23;24.90;1.00
15241;DHT22;7723;52.170;9.978;2023-07-29T12:22:54;24.90;1.00
15241;DHT22;7723;52.170;9.978;2023-07-29T12:25:21;24.90;1.00
15241;DHT22;7723;52.170;9.978;2023-07-29T12:27:50;25.20;1.00
15241;DHT22;7723;52.170;9.978;2023-07-29T12:30:21;25.10;99.90
15241;DHT22;7723;52.170;9.978;2023-07-29T12:32:49;24.80;99.90
15241;DHT22;7723;52.170;9.978;2023-07-29T12:35:16;24.50;1.00
15241;DHT22;7723;52.170;9.978;2023-07-29T12:37:43;24.50;1.00
15241;DHT22;7723;52.170;9.978;2023-07-29T12:40:21;24.80;1.00
15241;DHT22;7723;52.170;9.978;2023-07-29T12:42:52;25.10;99.90
15241;DHT22;7723;52.170;9.978;2023-07-29T12:45:19;25.10;1.00
15241;DHT22;7723;52.170;9.978;2023-07-29T12:47:48;25.00;1.00
15241;DHT22;7723;52.170;9.978;2023-07-29T12:50:16;25.10;1.00
15241;DHT22;7723;52.170;9.978;2023-07-29T12:52:44;24.90;1.00
15241;DHT22;7723;52.170;9.978;2023-07-29T12:55:11;24.90;1.00
15241;DHT22;7723;52.170;9.978;2023-07-29T12:57:40;24.90;1.00
15241;DHT22;7723;52.170;9.978;2023-07-29T13:00:10;24.90;62.00
15241;DHT22;7723;52.170;9.978;2023-07-29T13:02:38;25.20;59.50
15241;DHT22;7723;52.170;9.978;2023-07-29T13:05:08;25.50;23.00
15241;DHT22;7723;52.170;9.978;2023-07-29T13:07:36;25.40;1.00
15241;DHT22;7723;52.170;9.978;2023-07-29T13:10:04;25.30;1.00
15241;DHT22;7723;52.170;9.978;2023-07-29T13:12:31;25.40;1.00
15241;DHT22;7723;52.170;9.978;2023-07-29T13:14:58;25.30;1.00
15241;DHT22;7723;52.170;9.978;2023-07-29T13:17:27;25.20;1.00
15241;DHT22;7723;52.170;9.978;2023-07-29T13:19:54;25.20;99.90
15241;DHT22;7723;52.170;9.978;2023-07-29T13:22:21;25.20;99.90
15241;DHT22;7723;52.170;9.978;2023-07-29T13:24:48;24.80;76.30
15241;DHT22;7723;52.170;9.978;2023-07-29T13:27:15;25.30;84.80
15241;DHT22;7723;52.170;9.978;2023-07-29T13:29:43;25.40;1.00
15241;DHT22;7723;52.170;9.978;2023-07-29T13:32:11;25.40;1.00
15241;DHT22;7723;52.170;9.978;2023-07-29T13:34:40;25.50;1.00
15241;DHT22;7723;52.170;9.978;2023-07-29T13:37:07;25.60;1.00
15241;DHT22;7723;52.170;9.978;2023-07-29T13:39:34;25.50;1.00
15241;DHT22;7723;52.170;9.978;2023-07-29T13:42:01;25.20;1.00
15241;DHT22;7723;52.170;9.978;2023-07-29T13:44:28;25.00;1.00
15241;DHT22;7723;52.170;9.978;2023-07-29T13:46:55;25.00;1.00
15241;DHT22;7723;52.170;9.978;2023-07-29T13:49:22;25.00;99.90
15241;DHT22;7723;52.170;9.978;2023-07-29T13:51:50;25.10;57.30
15241;DHT22;7723;52.170;9.978;2023-07-29T13:54:18;25.10;99.90
15241;DHT22;7723;52.170;9.978;2023-07-29T13:56:45;24.90;99.90
15241;DHT22;7723;52.170;9.978;2023-07-29T13:59:12;25.00;99.90
15241;DHT22;7723;52.170;9.978;2023-07-29T14:01:39;25.20;99.90
15241;DHT22;7723;52.170;9.978;2023-07-29T14:04:06;25.30;60.90
15241;DHT22;7723;52.170;9.978;2023-07-29T14:06:33;25.20;1.00
15241;DHT22;7723;52.170;9.978;2023-07-29T14:09:01;25.00;57.50
15241;DHT22;7723;52.170;9.978;2023-07-29T14:11:29;25.00;4.70
15241;DHT22;7723;52.170;9.978;2023-07-29T14:13:56;24.90;99.90
15241;DHT22;7723;52.170;9.978;2023-07-29T14:16:23;24.90;48.60
15241;DHT22;7723;52.170;9.978;2023-07-29T14:18:50;24.90;99.90
15241;DHT22;7723;52.170;9.978;2023-07-29T14:21:17;24.80;99.90
15241;DHT22;7723;52.170;9.978;2023-07-29T14:23:44;24.60;99.90
15241;DHT22;7723;52.170;9.978;2023-07-29T14:26:12;24.60;99.90
15241;DHT22;7723;52.170;9.978;2023-07-29T14:28:39;24.60;1.00
15241;DHT22;7723;52.170;9.978;2023-07-29T14:31:07;24.70;99.90
15241;DHT22;7723;52.170;9.978;2023-07-29T14:33:34;24.60;1.00
15241;DHT22;7723;52.170;9.978;2023-07-29T14:36:01;24.50;1.00
15241;DHT22;7723;52.170;9.978;2023-07-29T14:38:29;24.30;1.00
15241;DHT22;7723;52.170;9.978;2023-07-29T14:40:56;24.30;1.00
15241;DHT22;7723;52.170;9.978;2023-07-29T14:43:24;24.50;1.00
15241;DHT22;7723;52.170;9.978;2023-07-29T14:45:52;24.50;99.70
15241;DHT22;7723;52.170;9.978;2023-07-29T14:48:19;24.70;1.00
15241;DHT22;7723;52.170;9.978;2023-07-29T14:50:46;24.60;1.00
15241;DHT22;7723;52.170;9.978;2023-07-29T14:53:13;24.70;1.00
15241;DHT22;7723;52.170;9.978;2023-07-29T14:55:40;24.90;1.00
15241;DHT22;7723;52.170;9.978;2023-07-29T14:58:07;25.20;1.00
15241;DHT22;7723;52.170;9.978;2023-07-29T15:00:36;25.20;1.00
15241;DHT22;7723;52.170;9.978;2023-07-29T15:03:03;25.30;99.90
15241;DHT22;7723;52.170;9.978;2023-07-29T15:05:30;25.40;1.00
15241;DHT22;7723;52.170;9.978;2023-07-29T15:07:57;25.20;99.90
15241;DHT22;7723;52.170;9.978;2023-07-29T15:10:24;25.00;1.00
15241;DHT22;7723;52.170;9.978;2023-07-29T15:12:52;24.70;1.00
15241;DHT22;7723;52.170;9.978;2023-07-29T15:15:19;24.20;1.00
15241;DHT22;7723;52.170;9.978;2023-07-29T15:17:47;24.10;1.00
15241;DHT22;7723;52.170;9.978;2023-07-29T15:20:14;24.10;99.90
15241;DHT22;7723;52.170;9.978;2023-07-29T15:22:42;24.20;99.90
15241;DHT22;7723;52.170;9.978;2023-07-29T15:25:10;24.40;99.90
15241;DHT22;7723;52.170;9.978;2023-07-29T15:27:37;24.40;99.90
15241;DHT22;7723;52.170;9.978;2023-07-29T15:30:07;24.40;1.00
15241;DHT22;7723;52.170;9.978;2023-07-29T15:32:34;24.40;99.90
15241;DHT22;7723;52.170;9.978;2023-07-29T15:35:03;24.30;99.90
15241;DHT22;7723;52.170;9.978;2023-07-29T15:37:30;24.10;99.90
15241;DHT22;7723;52.170;9.978;2023-07-29T15:39:58;23.80;1.00
15241;DHT22;7723;52.170;9.978;2023-07-29T15:42:25;23.80;99.90
15241;DHT22;7723;52.170;9.978;2023-07-29T15:44:52;23.60;99.90
15241;DHT22;7723;52.170;9.978;2023-07-29T15:47:19;23.50;99.90
15241;DHT22;7723;52.170;9.978;2023-07-29T15:49:46;23.50;99.90
15241;DHT22;7723;52.170;9.978;2023-07-29T15:52:15;23.60;99.90
15241;DHT22;7723;52.170;9.978;2023-07-29T15:54:42;23.50;1.00